Henderson, New York
Current Conditions -  °F | °C
As of 3:56 PM on Friday 28 Nov 2014 (Local Time) from KART Reporting Station
Overcast Overcast  
Wind Chill: -7°   Ceiling: 4500
Heat Index: -2°   Visibility: 10mi
Dew Point: -11°   Wind: 8mph
Humidity: 53%   Direction: 270°W
Pressure: 30.18"   Gusts: NA
Location:  43.85°N, 76.18°W
Report Text: KART 282056Z AUTO 27007KT 10SM SCT035 OVC045 M02/M11 A3018 RMK AO2 SNE49 SLP227 P0000 60000 T10221106 53005
Loading
Personal Weather Stations






























Interactive Weather Map New forecast layout! Learn more

10-Day Weather Forecast

Advertisements
Track Severe Weather on mobile